sensor_id;sensor_type;location;lat;lon;timestamp;P1;durP1;ratioP1;P2;durP2;ratioP2
49910;SDS011;35803;53.096;5.844;2022-08-11T00:01:19;6.55;;;4.90;;
49910;SDS011;35803;53.096;5.844;2022-08-11T00:03:47;6.68;;;4.82;;
49910;SDS011;35803;53.096;5.844;2022-08-11T00:06:22;8.38;;;5.15;;
49910;SDS011;35803;53.096;5.844;2022-08-11T00:08:49;7.75;;;5.07;;
49910;SDS011;35803;53.096;5.844;2022-08-11T00:11:15;7.55;;;5.20;;
49910;SDS011;35803;53.096;5.844;2022-08-11T00:13:43;7.00;;;5.28;;
49910;SDS011;35803;53.096;5.844;2022-08-11T00:16:23;8.05;;;5.72;;
49910;SDS011;35803;53.096;5.844;2022-08-11T00:18:54;7.15;;;5.60;;
49910;SDS011;35803;53.096;5.844;2022-08-11T00:21:21;7.60;;;5.30;;
49910;SDS011;35803;53.096;5.844;2022-08-11T00:23:56;7.50;;;5.70;;
49910;SDS011;35803;53.096;5.844;2022-08-11T00:26:23;8.18;;;5.50;;
49910;SDS011;35803;53.096;5.844;2022-08-11T00:28:49;8.32;;;5.80;;
49910;SDS011;35803;53.096;5.844;2022-08-11T00:31:34;8.90;;;5.90;;
49910;SDS011;35803;53.096;5.844;2022-08-11T00:34:00;8.77;;;5.40;;
49910;SDS011;35803;53.096;5.844;2022-08-11T00:36:49;7.50;;;5.10;;
49910;SDS011;35803;53.096;5.844;2022-08-11T00:39:33;7.00;;;5.35;;
49910;SDS011;35803;53.096;5.844;2022-08-11T00:42:04;7.53;;;5.55;;
49910;SDS011;35803;53.096;5.844;2022-08-11T00:44:37;7.05;;;5.20;;
49910;SDS011;35803;53.096;5.844;2022-08-11T00:50:00;7.97;;;5.30;;
49910;SDS011;35803;53.096;5.844;2022-08-11T00:52:38;7.60;;;5.53;;
49910;SDS011;35803;53.096;5.844;2022-08-11T00:55:24;7.88;;;5.43;;
49910;SDS011;35803;53.096;5.844;2022-08-11T01:00:41;7.60;;;5.07;;
49910;SDS011;35803;53.096;5.844;2022-08-11T01:04:01;7.82;;;5.30;;
49910;SDS011;35803;53.096;5.844;2022-08-11T01:26:46;7.35;;;5.25;;
49910;SDS011;35803;53.096;5.844;2022-08-11T01:35:13;7.90;;;5.28;;
49910;SDS011;35803;53.096;5.844;2022-08-11T01:41:34;8.10;;;5.30;;
49910;SDS011;35803;53.096;5.844;2022-08-11T01:46:44;8.00;;;5.32;;
49910;SDS011;35803;53.096;5.844;2022-08-11T01:52:03;8.75;;;5.80;;
49910;SDS011;35803;53.096;5.844;2022-08-11T01:54:41;9.07;;;5.78;;
49910;SDS011;35803;53.096;5.844;2022-08-11T02:00:20;9.60;;;6.40;;
49910;SDS011;35803;53.096;5.844;2022-08-11T02:03:00;9.27;;;6.15;;
49910;SDS011;35803;53.096;5.844;2022-08-11T02:12:02;10.18;;;6.00;;
49910;SDS011;35803;53.096;5.844;2022-08-11T02:14:39;9.88;;;6.53;;
49910;SDS011;35803;53.096;5.844;2022-08-11T02:17:22;8.57;;;6.28;;
49910;SDS011;35803;53.096;5.844;2022-08-11T02:23:04;9.38;;;6.47;;
49910;SDS011;35803;53.096;5.844;2022-08-11T02:28:38;8.30;;;6.40;;
49910;SDS011;35803;53.096;5.844;2022-08-11T02:34:20;10.73;;;6.55;;
49910;SDS011;35803;53.096;5.844;2022-08-11T02:42:25;10.95;;;6.60;;
49910;SDS011;35803;53.096;5.844;2022-08-11T02:54:02;10.13;;;6.93;;
49910;SDS011;35803;53.096;5.844;2022-08-11T02:56:38;12.00;;;6.90;;
49910;SDS011;35803;53.096;5.844;2022-08-11T03:02:13;10.85;;;7.05;;
49910;SDS011;35803;53.096;5.844;2022-08-11T03:07:27;12.10;;;7.28;;
49910;SDS011;35803;53.096;5.844;2022-08-11T03:16:06;11.52;;;7.05;;
49910;SDS011;35803;53.096;5.844;2022-08-11T03:19:10;9.60;;;6.45;;
49910;SDS011;35803;53.096;5.844;2022-08-11T03:21:41;11.30;;;7.18;;
49910;SDS011;35803;53.096;5.844;2022-08-11T03:24:14;10.05;;;6.93;;
49910;SDS011;35803;53.096;5.844;2022-08-11T03:26:46;14.52;;;7.55;;
49910;SDS011;35803;53.096;5.844;2022-08-11T03:29:29;11.60;;;7.20;;
49910;SDS011;35803;53.096;5.844;2022-08-11T03:34:49;11.38;;;6.70;;
49910;SDS011;35803;53.096;5.844;2022-08-11T03:40:12;10.60;;;6.75;;
49910;SDS011;35803;53.096;5.844;2022-08-11T03:43:06;11.45;;;7.25;;
49910;SDS011;35803;53.096;5.844;2022-08-11T03:46:03;14.23;;;7.75;;
49910;SDS011;35803;53.096;5.844;2022-08-11T03:51:22;12.70;;;7.68;;
49910;SDS011;35803;53.096;5.844;2022-08-11T04:08:01;14.50;;;8.10;;
49910;SDS011;35803;53.096;5.844;2022-08-11T04:27:16;12.75;;;7.70;;
49910;SDS011;35803;53.096;5.844;2022-08-11T04:35:18;12.85;;;7.65;;
49910;SDS011;35803;53.096;5.844;2022-08-11T04:38:21;13.55;;;7.68;;
49910;SDS011;35803;53.096;5.844;2022-08-11T04:50:21;12.68;;;8.18;;
49910;SDS011;35803;53.096;5.844;2022-08-11T04:53:12;14.45;;;8.05;;
49910;SDS011;35803;53.096;5.844;2022-08-11T04:56:10;12.68;;;8.40;;
49910;SDS011;35803;53.096;5.844;2022-08-11T04:59:12;13.38;;;8.30;;
49910;SDS011;35803;53.096;5.844;2022-08-11T05:07:35;13.30;;;8.90;;
49910;SDS011;35803;53.096;5.844;2022-08-11T05:12:58;14.70;;;8.82;;
49910;SDS011;35803;53.096;5.844;2022-08-11T05:15:50;15.13;;;8.45;;
49910;SDS011;35803;53.096;5.844;2022-08-11T05:18:37;14.50;;;8.25;;
49910;SDS011;35803;53.096;5.844;2022-08-11T05:21:31;14.13;;;9.13;;
49910;SDS011;35803;53.096;5.844;2022-08-11T05:24:23;13.13;;;8.75;;
49910;SDS011;35803;53.096;5.844;2022-08-11T05:27:09;14.65;;;9.07;;
49910;SDS011;35803;53.096;5.844;2022-08-11T05:29:56;14.68;;;8.20;;
49910;SDS011;35803;53.096;5.844;2022-08-11T05:32:45;13.52;;;9.02;;
49910;SDS011;35803;53.096;5.844;2022-08-11T05:35:48;13.98;;;8.35;;
49910;SDS011;35803;53.096;5.844;2022-08-11T05:38:15;12.98;;;9.00;;
49910;SDS011;35803;53.096;5.844;2022-08-11T05:41:02;12.45;;;8.35;;
49910;SDS011;35803;53.096;5.844;2022-08-11T05:43:46;12.40;;;8.73;;
49910;SDS011;35803;53.096;5.844;2022-08-11T05:46:41;13.50;;;8.77;;
49910;SDS011;35803;53.096;5.844;2022-08-11T05:49:28;16.33;;;8.95;;
49910;SDS011;35803;53.096;5.844;2022-08-11T05:52:14;15.68;;;8.93;;
49910;SDS011;35803;53.096;5.844;2022-08-11T05:55:01;16.63;;;8.98;;
49910;SDS011;35803;53.096;5.844;2022-08-11T05:57:46;12.27;;;8.15;;
49910;SDS011;35803;53.096;5.844;2022-08-11T06:00:12;16.05;;;9.07;;
49910;SDS011;35803;53.096;5.844;2022-08-11T06:02:42;13.30;;;8.73;;
49910;SDS011;35803;53.096;5.844;2022-08-11T06:05:09;14.90;;;8.68;;
49910;SDS011;35803;53.096;5.844;2022-08-11T06:07:35;12.88;;;8.57;;
49910;SDS011;35803;53.096;5.844;2022-08-11T06:10:01;12.57;;;8.35;;
49910;SDS011;35803;53.096;5.844;2022-08-11T06:12:31;14.40;;;8.25;;
49910;SDS011;35803;53.096;5.844;2022-08-11T06:15:04;12.13;;;7.85;;
49910;SDS011;35803;53.096;5.844;2022-08-11T06:17:32;10.05;;;6.93;;
49910;SDS011;35803;53.096;5.844;2022-08-11T06:20:04;10.95;;;7.30;;
49910;SDS011;35803;53.096;5.844;2022-08-11T06:22:31;10.45;;;7.25;;
49910;SDS011;35803;53.096;5.844;2022-08-11T06:24:58;9.10;;;6.93;;
49910;SDS011;35803;53.096;5.844;2022-08-11T06:27:26;11.05;;;6.85;;
49910;SDS011;35803;53.096;5.844;2022-08-11T06:29:54;12.90;;;7.93;;
49910;SDS011;35803;53.096;5.844;2022-08-11T06:32:42;10.13;;;6.82;;
49910;SDS011;35803;53.096;5.844;2022-08-11T06:43:01;9.60;;;5.80;;
49910;SDS011;35803;53.096;5.844;2022-08-11T06:45:46;7.47;;;5.57;;
49910;SDS011;35803;53.096;5.844;2022-08-11T06:48:16;8.30;;;5.38;;
49910;SDS011;35803;53.096;5.844;2022-08-11T06:50:47;8.50;;;5.80;;
49910;SDS011;35803;53.096;5.844;2022-08-11T06:53:32;6.70;;;4.93;;
49910;SDS011;35803;53.096;5.844;2022-08-11T06:55:58;9.18;;;4.90;;
49910;SDS011;35803;53.096;5.844;2022-08-11T06:58:46;7.38;;;4.88;;
49910;SDS011;35803;53.096;5.844;2022-08-11T07:04:01;6.97;;;4.63;;
49910;SDS011;35803;53.096;5.844;2022-08-11T07:12:08;7.57;;;4.57;;
49910;SDS011;35803;53.096;5.844;2022-08-11T07:14:56;5.07;;;4.07;;
49910;SDS011;35803;53.096;5.844;2022-08-11T07:17:45;6.45;;;4.40;;
49910;SDS011;35803;53.096;5.844;2022-08-11T07:20:34;6.20;;;3.60;;
49910;SDS011;35803;53.096;5.844;2022-08-11T07:23:19;6.60;;;3.90;;
49910;SDS011;35803;53.096;5.844;2022-08-11T07:26:03;4.93;;;3.92;;
49910;SDS011;35803;53.096;5.844;2022-08-11T07:28:48;3.97;;;3.50;;
49910;SDS011;35803;53.096;5.844;2022-08-11T07:31:42;5.45;;;3.92;;
49910;SDS011;35803;53.096;5.844;2022-08-11T07:34:12;5.47;;;3.50;;
49910;SDS011;35803;53.096;5.844;2022-08-11T07:36:51;4.35;;;3.67;;
49910;SDS011;35803;53.096;5.844;2022-08-11T07:39:22;5.22;;;3.50;;
49910;SDS011;35803;53.096;5.844;2022-08-11T07:41:51;4.15;;;3.42;;
49910;SDS011;35803;53.096;5.844;2022-08-11T07:44:18;4.90;;;3.30;;
49910;SDS011;35803;53.096;5.844;2022-08-11T07:46:46;3.45;;;3.10;;
49910;SDS011;35803;53.096;5.844;2022-08-11T07:49:33;3.90;;;3.30;;
49910;SDS011;35803;53.096;5.844;2022-08-11T07:52:19;4.32;;;3.45;;
49910;SDS011;35803;53.096;5.844;2022-08-11T07:55:01;6.13;;;3.15;;
49910;SDS011;35803;53.096;5.844;2022-08-11T07:57:32;5.82;;;3.25;;
49910;SDS011;35803;53.096;5.844;2022-08-11T08:00:16;4.78;;;3.33;;
49910;SDS011;35803;53.096;5.844;2022-08-11T08:03:02;4.13;;;2.65;;
49910;SDS011;35803;53.096;5.844;2022-08-11T08:05:48;5.25;;;2.90;;
49910;SDS011;35803;53.096;5.844;2022-08-11T08:08:33;3.95;;;3.05;;
49910;SDS011;35803;53.096;5.844;2022-08-11T08:11:18;3.10;;;2.80;;
49910;SDS011;35803;53.096;5.844;2022-08-11T08:14:04;4.28;;;2.75;;
49910;SDS011;35803;53.096;5.844;2022-08-11T08:16:49;3.42;;;2.47;;
49910;SDS011;35803;53.096;5.844;2022-08-11T08:19:34;3.88;;;2.72;;
49910;SDS011;35803;53.096;5.844;2022-08-11T08:22:00;3.67;;;2.53;;
49910;SDS011;35803;53.096;5.844;2022-08-11T08:24:27;2.78;;;2.38;;
49910;SDS011;35803;53.096;5.844;2022-08-11T08:26:53;4.32;;;2.33;;
49910;SDS011;35803;53.096;5.844;2022-08-11T08:32:15;2.63;;;2.42;;
49910;SDS011;35803;53.096;5.844;2022-08-11T08:34:41;2.55;;;2.30;;
49910;SDS011;35803;53.096;5.844;2022-08-11T08:37:06;2.67;;;2.40;;
49910;SDS011;35803;53.096;5.844;2022-08-11T08:39:32;2.20;;;2.00;;
49910;SDS011;35803;53.096;5.844;2022-08-11T08:42:03;2.72;;;2.13;;
49910;SDS011;35803;53.096;5.844;2022-08-11T08:44:33;3.05;;;2.08;;
49910;SDS011;35803;53.096;5.844;2022-08-11T08:46:59;1.98;;;1.63;;
49910;SDS011;35803;53.096;5.844;2022-08-11T08:49:27;2.40;;;1.73;;
49910;SDS011;35803;53.096;5.844;2022-08-11T08:51:57;2.97;;;2.00;;
49910;SDS011;35803;53.096;5.844;2022-08-11T08:54:28;2.08;;;1.67;;
49910;SDS011;35803;53.096;5.844;2022-08-11T08:56:58;1.60;;;1.50;;
49910;SDS011;35803;53.096;5.844;2022-08-11T08:59:29;2.67;;;1.65;;
49910;SDS011;35803;53.096;5.844;2022-08-11T09:01:59;1.63;;;1.52;;
49910;SDS011;35803;53.096;5.844;2022-08-11T09:04:27;1.60;;;1.50;;
49910;SDS011;35803;53.096;5.844;2022-08-11T09:06:53;1.77;;;1.67;;
49910;SDS011;35803;53.096;5.844;2022-08-11T09:09:20;2.22;;;1.70;;
49910;SDS011;35803;53.096;5.844;2022-08-11T09:11:46;1.80;;;1.70;;
49910;SDS011;35803;53.096;5.844;2022-08-11T09:14:25;2.13;;;1.40;;
49910;SDS011;35803;53.096;5.844;2022-08-11T09:17:18;2.72;;;1.45;;
49910;SDS011;35803;53.096;5.844;2022-08-11T09:19:46;1.45;;;1.33;;
49910;SDS011;35803;53.096;5.844;2022-08-11T09:22:12;1.98;;;1.75;;
49910;SDS011;35803;53.096;5.844;2022-08-11T09:24:56;2.13;;;1.50;;
49910;SDS011;35803;53.096;5.844;2022-08-11T09:27:41;1.85;;;1.63;;
49910;SDS011;35803;53.096;5.844;2022-08-11T09:30:07;2.13;;;1.50;;
49910;SDS011;35803;53.096;5.844;2022-08-11T09:32:35;1.58;;;1.48;;
49910;SDS011;35803;53.096;5.844;2022-08-11T09:35:03;1.42;;;1.33;;
49910;SDS011;35803;53.096;5.844;2022-08-11T09:37:29;2.13;;;1.40;;
49910;SDS011;35803;53.096;5.844;2022-08-11T09:40:14;1.27;;;1.08;;
49910;SDS011;35803;53.096;5.844;2022-08-11T09:42:56;2.22;;;1.35;;
49910;SDS011;35803;53.096;5.844;2022-08-11T09:45:43;1.75;;;1.40;;
49910;SDS011;35803;53.096;5.844;2022-08-11T09:48:10;1.88;;;1.50;;
49910;SDS011;35803;53.096;5.844;2022-08-11T09:50:36;1.88;;;1.27;;
49910;SDS011;35803;53.096;5.844;2022-08-11T09:53:04;1.40;;;1.30;;
49910;SDS011;35803;53.096;5.844;2022-08-11T09:55:30;2.72;;;1.55;;
49910;SDS011;35803;53.096;5.844;2022-08-11T09:57:57;1.83;;;1.58;;
49910;SDS011;35803;53.096;5.844;2022-08-11T10:00:38;2.28;;;1.60;;
49910;SDS011;35803;53.096;5.844;2022-08-11T10:03:11;1.30;;;1.20;;
49910;SDS011;35803;53.096;5.844;2022-08-11T10:05:39;2.00;;;1.40;;
49910;SDS011;35803;53.096;5.844;2022-08-11T10:08:28;1.95;;;1.40;;
49910;SDS011;35803;53.096;5.844;2022-08-11T10:10:55;2.20;;;1.40;;
49910;SDS011;35803;53.096;5.844;2022-08-11T10:13:21;1.27;;;1.17;;
49910;SDS011;35803;53.096;5.844;2022-08-11T10:15:54;1.40;;;1.30;;
49910;SDS011;35803;53.096;5.844;2022-08-11T10:18:23;2.88;;;1.27;;
49910;SDS011;35803;53.096;5.844;2022-08-11T10:21:14;2.28;;;1.60;;
49910;SDS011;35803;53.096;5.844;2022-08-11T10:23:42;1.77;;;1.50;;
49910;SDS011;35803;53.096;5.844;2022-08-11T10:26:27;1.40;;;1.30;;
49910;SDS011;35803;53.096;5.844;2022-08-11T10:29:19;2.28;;;1.40;;
49910;SDS011;35803;53.096;5.844;2022-08-11T10:32:05;1.63;;;1.40;;
49910;SDS011;35803;53.096;5.844;2022-08-11T10:34:49;1.77;;;1.45;;
49910;SDS011;35803;53.096;5.844;2022-08-11T10:37:16;1.75;;;1.15;;
49910;SDS011;35803;53.096;5.844;2022-08-11T10:39:42;2.58;;;1.20;;
49910;SDS011;35803;53.096;5.844;2022-08-11T10:42:09;4.03;;;1.40;;
49910;SDS011;35803;53.096;5.844;2022-08-11T10:44:55;1.42;;;1.05;;
49910;SDS011;35803;53.096;5.844;2022-08-11T10:47:22;1.58;;;1.30;;
49910;SDS011;35803;53.096;5.844;2022-08-11T10:50:08;1.48;;;1.38;;
49910;SDS011;35803;53.096;5.844;2022-08-11T10:52:55;1.52;;;1.40;;
49910;SDS011;35803;53.096;5.844;2022-08-11T10:55:41;2.25;;;1.30;;
49910;SDS011;35803;53.096;5.844;2022-08-11T10:58:27;1.77;;;1.40;;
49910;SDS011;35803;53.096;5.844;2022-08-11T11:01:12;1.70;;;1.23;;
49910;SDS011;35803;53.096;5.844;2022-08-11T11:03:41;1.50;;;1.40;;
49910;SDS011;35803;53.096;5.844;2022-08-11T11:06:26;2.15;;;1.60;;
49910;SDS011;35803;53.096;5.844;2022-08-11T11:11:38;2.28;;;1.50;;
49910;SDS011;35803;53.096;5.844;2022-08-11T11:14:28;2.40;;;1.50;;
49910;SDS011;35803;53.096;5.844;2022-08-11T11:17:13;1.42;;;1.33;;
49910;SDS011;35803;53.096;5.844;2022-08-11T11:19:39;1.30;;;1.10;;
49910;SDS011;35803;53.096;5.844;2022-08-11T11:22:06;2.53;;;1.70;;
49910;SDS011;35803;53.096;5.844;2022-08-11T11:35:09;1.60;;;1.35;;
49910;SDS011;35803;53.096;5.844;2022-08-11T11:37:37;1.80;;;1.50;;
49910;SDS011;35803;53.096;5.844;2022-08-11T11:40:07;1.73;;;1.42;;
49910;SDS011;35803;53.096;5.844;2022-08-11T11:42:49;2.22;;;1.17;;
49910;SDS011;35803;53.096;5.844;2022-08-11T11:45:17;2.03;;;1.08;;
49910;SDS011;35803;53.096;5.844;2022-08-11T11:47:45;2.00;;;1.27;;
49910;SDS011;35803;53.096;5.844;2022-08-11T11:50:13;1.42;;;1.30;;
49910;SDS011;35803;53.096;5.844;2022-08-11T11:52:39;1.48;;;1.38;;
49910;SDS011;35803;53.096;5.844;2022-08-11T11:55:05;1.15;;;1.13;;
49910;SDS011;35803;53.096;5.844;2022-08-11T11:57:31;1.30;;;1.20;;
49910;SDS011;35803;53.096;5.844;2022-08-11T12:00:16;1.80;;;1.25;;
49910;SDS011;35803;53.096;5.844;2022-08-11T12:03:02;1.75;;;1.20;;
49910;SDS011;35803;53.096;5.844;2022-08-11T12:05:32;2.35;;;1.23;;
49910;SDS011;35803;53.096;5.844;2022-08-11T12:07:59;1.52;;;1.27;;
49910;SDS011;35803;53.096;5.844;2022-08-11T12:11:01;1.30;;;1.13;;
49910;SDS011;35803;53.096;5.844;2022-08-11T12:13:45;1.35;;;1.20;;
49910;SDS011;35803;53.096;5.844;2022-08-11T12:16:14;2.67;;;1.23;;
49910;SDS011;35803;53.096;5.844;2022-08-11T12:18:41;2.22;;;1.25;;
49910;SDS011;35803;53.096;5.844;2022-08-11T12:21:08;1.75;;;1.60;;
49910;SDS011;35803;53.096;5.844;2022-08-11T12:23:36;2.40;;;1.40;;
49910;SDS011;35803;53.096;5.844;2022-08-11T12:26:21;1.35;;;1.08;;
49910;SDS011;35803;53.096;5.844;2022-08-11T12:29:06;1.30;;;1.20;;
49910;SDS011;35803;53.096;5.844;2022-08-11T12:31:35;1.58;;;1.30;;
49910;SDS011;35803;53.096;5.844;2022-08-11T12:34:03;2.38;;;1.10;;
49910;SDS011;35803;53.096;5.844;2022-08-11T12:36:34;1.20;;;1.10;;
49910;SDS011;35803;53.096;5.844;2022-08-11T12:39:02;1.75;;;1.20;;
49910;SDS011;35803;53.096;5.844;2022-08-11T12:41:30;1.40;;;1.30;;
49910;SDS011;35803;53.096;5.844;2022-08-11T12:44:16;1.10;;;1.00;;
49910;SDS011;35803;53.096;5.844;2022-08-11T12:47:00;1.58;;;1.15;;
49910;SDS011;35803;53.096;5.844;2022-08-11T12:49:27;2.28;;;1.50;;
49910;SDS011;35803;53.096;5.844;2022-08-11T12:52:17;1.30;;;1.15;;
49910;SDS011;35803;53.096;5.844;2022-08-11T12:54:54;1.50;;;1.08;;
49910;SDS011;35803;53.096;5.844;2022-08-11T13:00:26;1.67;;;1.30;;
49910;SDS011;35803;53.096;5.844;2022-08-11T13:03:11;1.92;;;1.10;;
49910;SDS011;35803;53.096;5.844;2022-08-11T13:05:57;1.52;;;1.42;;
49910;SDS011;35803;53.096;5.844;2022-08-11T13:08:25;0.98;;;0.98;;
49910;SDS011;35803;53.096;5.844;2022-08-11T13:10:52;1.77;;;1.33;;
49910;SDS011;35803;53.096;5.844;2022-08-11T13:13:38;1.40;;;1.10;;
49910;SDS011;35803;53.096;5.844;2022-08-11T13:16:07;1.40;;;1.10;;
49910;SDS011;35803;53.096;5.844;2022-08-11T13:18:33;1.98;;;0.90;;
49910;SDS011;35803;53.096;5.844;2022-08-11T13:20:58;1.42;;;0.95;;
49910;SDS011;35803;53.096;5.844;2022-08-11T13:23:24;1.20;;;1.10;;
49910;SDS011;35803;53.096;5.844;2022-08-11T13:25:50;1.40;;;1.25;;
49910;SDS011;35803;53.096;5.844;2022-08-11T13:28:17;0.90;;;0.90;;
49910;SDS011;35803;53.096;5.844;2022-08-11T13:30:43;1.02;;;1.00;;
49910;SDS011;35803;53.096;5.844;2022-08-11T13:33:37;1.92;;;1.08;;
49910;SDS011;35803;53.096;5.844;2022-08-11T13:36:11;1.85;;;1.00;;
49910;SDS011;35803;53.096;5.844;2022-08-11T13:38:41;1.40;;;1.30;;
49910;SDS011;35803;53.096;5.844;2022-08-11T13:41:08;2.65;;;1.10;;
49910;SDS011;35803;53.096;5.844;2022-08-11T13:43:54;1.15;;;1.05;;
49910;SDS011;35803;53.096;5.844;2022-08-11T13:46:20;0.85;;;0.85;;
49910;SDS011;35803;53.096;5.844;2022-08-11T13:48:49;1.20;;;0.98;;
49910;SDS011;35803;53.096;5.844;2022-08-11T13:51:15;1.02;;;1.00;;
49910;SDS011;35803;53.096;5.844;2022-08-11T13:56:36;1.17;;;1.08;;
49910;SDS011;35803;53.096;5.844;2022-08-11T13:59:06;1.77;;;1.10;;
49910;SDS011;35803;53.096;5.844;2022-08-11T14:01:33;2.15;;;1.17;;
49910;SDS011;35803;53.096;5.844;2022-08-11T14:07:04;1.17;;;0.88;;
49910;SDS011;35803;53.096;5.844;2022-08-11T14:09:33;1.98;;;1.08;;
49910;SDS011;35803;53.096;5.844;2022-08-11T14:12:14;5.55;;;1.10;;
49910;SDS011;35803;53.096;5.844;2022-08-11T14:15:04;1.10;;;1.10;;
49910;SDS011;35803;53.096;5.844;2022-08-11T14:17:33;1.15;;;1.02;;
49910;SDS011;35803;53.096;5.844;2022-08-11T14:20:00;1.30;;;1.05;;
49910;SDS011;35803;53.096;5.844;2022-08-11T14:22:28;2.08;;;1.20;;
49910;SDS011;35803;53.096;5.844;2022-08-11T14:24:54;1.02;;;1.02;;
49910;SDS011;35803;53.096;5.844;2022-08-11T14:27:21;1.83;;;1.35;;
49910;SDS011;35803;53.096;5.844;2022-08-11T14:29:50;0.95;;;0.90;;
49910;SDS011;35803;53.096;5.844;2022-08-11T14:32:18;1.10;;;1.00;;
49910;SDS011;35803;53.096;5.844;2022-08-11T14:34:44;1.45;;;1.20;;
49910;SDS011;35803;53.096;5.844;2022-08-11T14:39:42;3.13;;;1.20;;
49910;SDS011;35803;53.096;5.844;2022-08-11T14:42:11;1.17;;;1.00;;
49910;SDS011;35803;53.096;5.844;2022-08-11T14:44:57;3.65;;;1.10;;
49910;SDS011;35803;53.096;5.844;2022-08-11T14:47:46;1.08;;;0.95;;
49910;SDS011;35803;53.096;5.844;2022-08-11T14:50:15;1.30;;;1.20;;
49910;SDS011;35803;53.096;5.844;2022-08-11T14:52:46;1.73;;;1.00;;
49910;SDS011;35803;53.096;5.844;2022-08-11T14:55:14;1.97;;;1.20;;
49910;SDS011;35803;53.096;5.844;2022-08-11T14:58:07;1.20;;;1.00;;
49910;SDS011;35803;53.096;5.844;2022-08-11T15:00:35;1.30;;;1.08;;
49910;SDS011;35803;53.096;5.844;2022-08-11T15:03:02;1.40;;;1.05;;
49910;SDS011;35803;53.096;5.844;2022-08-11T15:05:34;1.92;;;1.10;;
49910;SDS011;35803;53.096;5.844;2022-08-11T15:08:00;1.50;;;1.05;;
49910;SDS011;35803;53.096;5.844;2022-08-11T15:10:26;1.80;;;1.20;;
49910;SDS011;35803;53.096;5.844;2022-08-11T15:12:52;2.08;;;1.40;;
49910;SDS011;35803;53.096;5.844;2022-08-11T15:15:18;1.40;;;1.10;;
49910;SDS011;35803;53.096;5.844;2022-08-11T15:18:06;1.15;;;1.05;;
49910;SDS011;35803;53.096;5.844;2022-08-11T15:20:41;1.40;;;1.20;;
49910;SDS011;35803;53.096;5.844;2022-08-11T15:23:29;1.30;;;0.98;;
49910;SDS011;35803;53.096;5.844;2022-08-11T15:29:37;2.05;;;1.38;;
49910;SDS011;35803;53.096;5.844;2022-08-11T15:32:21;1.20;;;1.10;;
49910;SDS011;35803;53.096;5.844;2022-08-11T15:35:07;1.13;;;1.10;;
49910;SDS011;35803;53.096;5.844;2022-08-11T15:37:53;1.85;;;1.10;;
49910;SDS011;35803;53.096;5.844;2022-08-11T15:40:26;1.40;;;1.23;;
49910;SDS011;35803;53.096;5.844;2022-08-11T15:43:36;4.25;;;2.72;;
49910;SDS011;35803;53.096;5.844;2022-08-11T15:46:32;1.45;;;1.35;;
49910;SDS011;35803;53.096;5.844;2022-08-11T15:49:03;1.33;;;1.10;;
49910;SDS011;35803;53.096;5.844;2022-08-11T15:52:16;1.20;;;1.10;;
49910;SDS011;35803;53.096;5.844;2022-08-11T15:54:25;2.80;;;1.10;;
49910;SDS011;35803;53.096;5.844;2022-08-11T15:56:53;1.30;;;1.20;;
49910;SDS011;35803;53.096;5.844;2022-08-11T15:59:19;1.30;;;1.20;;
49910;SDS011;35803;53.096;5.844;2022-08-11T16:02:07;2.22;;;1.20;;
49910;SDS011;35803;53.096;5.844;2022-08-11T16:04:55;1.30;;;1.20;;
49910;SDS011;35803;53.096;5.844;2022-08-11T16:07:22;1.20;;;1.10;;
49910;SDS011;35803;53.096;5.844;2022-08-11T16:09:56;1.50;;;1.30;;
49910;SDS011;35803;53.096;5.844;2022-08-11T16:12:25;0.90;;;0.90;;
49910;SDS011;35803;53.096;5.844;2022-08-11T16:15:01;1.30;;;1.20;;
49910;SDS011;35803;53.096;5.844;2022-08-11T16:17:49;1.23;;;1.10;;
49910;SDS011;35803;53.096;5.844;2022-08-11T16:20:20;1.00;;;0.90;;
49910;SDS011;35803;53.096;5.844;2022-08-11T16:22:48;1.20;;;1.10;;
49910;SDS011;35803;53.096;5.844;2022-08-11T16:25:17;1.00;;;1.00;;
49910;SDS011;35803;53.096;5.844;2022-08-11T16:27:58;1.27;;;0.90;;
49910;SDS011;35803;53.096;5.844;2022-08-11T16:30:34;1.38;;;1.27;;
49910;SDS011;35803;53.096;5.844;2022-08-11T16:33:02;2.00;;;1.10;;
49910;SDS011;35803;53.096;5.844;2022-08-11T16:35:29;1.85;;;1.20;;
49910;SDS011;35803;53.096;5.844;2022-08-11T16:38:15;1.40;;;1.30;;
49910;SDS011;35803;53.096;5.844;2022-08-11T16:41:00;1.10;;;1.00;;
49910;SDS011;35803;53.096;5.844;2022-08-11T16:43:31;0.82;;;0.82;;
49910;SDS011;35803;53.096;5.844;2022-08-11T16:46:17;1.23;;;1.10;;
49910;SDS011;35803;53.096;5.844;2022-08-11T16:49:16;2.83;;;1.25;;
49910;SDS011;35803;53.096;5.844;2022-08-11T16:54:10;2.58;;;1.50;;
49910;SDS011;35803;53.096;5.844;2022-08-11T16:56:38;1.23;;;1.10;;
49910;SDS011;35803;53.096;5.844;2022-08-11T16:59:18;1.15;;;1.15;;
49910;SDS011;35803;53.096;5.844;2022-08-11T17:01:51;1.13;;;1.02;;
49910;SDS011;35803;53.096;5.844;2022-08-11T17:07:23;1.15;;;1.05;;
49910;SDS011;35803;53.096;5.844;2022-08-11T17:10:10;1.00;;;1.00;;
49910;SDS011;35803;53.096;5.844;2022-08-11T17:12:57;1.10;;;1.00;;
49910;SDS011;35803;53.096;5.844;2022-08-11T17:15:43;1.38;;;1.15;;
49910;SDS011;35803;53.096;5.844;2022-08-11T17:18:29;1.10;;;1.00;;
49910;SDS011;35803;53.096;5.844;2022-08-11T17:21:13;3.78;;;1.17;;
49910;SDS011;35803;53.096;5.844;2022-08-11T17:24:12;2.00;;;1.02;;
49910;SDS011;35803;53.096;5.844;2022-08-11T17:26:40;2.08;;;1.20;;
49910;SDS011;35803;53.096;5.844;2022-08-11T17:35:51;3.78;;;1.10;;
49910;SDS011;35803;53.096;5.844;2022-08-11T17:38:19;1.95;;;1.00;;
49910;SDS011;35803;53.096;5.844;2022-08-11T17:40:47;1.35;;;1.20;;
49910;SDS011;35803;53.096;5.844;2022-08-11T17:43:34;1.17;;;1.00;;
49910;SDS011;35803;53.096;5.844;2022-08-11T17:46:18;4.47;;;1.30;;
49910;SDS011;35803;53.096;5.844;2022-08-11T17:49:04;2.22;;;1.15;;
49910;SDS011;35803;53.096;5.844;2022-08-11T17:51:34;1.05;;;0.93;;
49910;SDS011;35803;53.096;5.844;2022-08-11T17:54:19;2.55;;;1.17;;
49910;SDS011;35803;53.096;5.844;2022-08-11T17:57:04;1.33;;;1.10;;
49910;SDS011;35803;53.096;5.844;2022-08-11T17:59:50;1.30;;;1.20;;
49910;SDS011;35803;53.096;5.844;2022-08-11T18:02:42;1.17;;;1.08;;
49910;SDS011;35803;53.096;5.844;2022-08-11T18:05:28;1.70;;;1.30;;
49910;SDS011;35803;53.096;5.844;2022-08-11T18:07:55;1.27;;;1.17;;
49910;SDS011;35803;53.096;5.844;2022-08-11T18:10:41;1.42;;;1.17;;
49910;SDS011;35803;53.096;5.844;2022-08-11T18:13:28;1.73;;;1.30;;
49910;SDS011;35803;53.096;5.844;2022-08-11T18:16:14;1.55;;;1.45;;
49910;SDS011;35803;53.096;5.844;2022-08-11T18:18:58;1.55;;;1.20;;
49910;SDS011;35803;53.096;5.844;2022-08-11T18:21:43;1.60;;;1.50;;
49910;SDS011;35803;53.096;5.844;2022-08-11T18:24:29;1.50;;;1.40;;
49910;SDS011;35803;53.096;5.844;2022-08-11T18:27:15;1.17;;;1.13;;
49910;SDS011;35803;53.096;5.844;2022-08-11T18:30:02;1.50;;;1.40;;
49910;SDS011;35803;53.096;5.844;2022-08-11T18:32:47;1.33;;;1.08;;
49910;SDS011;35803;53.096;5.844;2022-08-11T18:35:32;2.10;;;1.17;;
49910;SDS011;35803;53.096;5.844;2022-08-11T18:38:17;2.97;;;1.30;;
49910;SDS011;35803;53.096;5.844;2022-08-11T18:41:03;1.98;;;1.65;;
49910;SDS011;35803;53.096;5.844;2022-08-11T18:43:52;1.75;;;1.65;;
49910;SDS011;35803;53.096;5.844;2022-08-11T18:46:43;2.28;;;1.60;;
49910;SDS011;35803;53.096;5.844;2022-08-11T18:49:36;2.97;;;1.80;;
49910;SDS011;35803;53.096;5.844;2022-08-11T18:52:39;2.47;;;1.13;;
49910;SDS011;35803;53.096;5.844;2022-08-11T18:58:11;1.52;;;1.42;;
49910;SDS011;35803;53.096;5.844;2022-08-11T19:00:58;2.80;;;1.48;;
49910;SDS011;35803;53.096;5.844;2022-08-11T19:03:43;2.28;;;1.35;;
49910;SDS011;35803;53.096;5.844;2022-08-11T19:06:29;1.52;;;1.42;;
49910;SDS011;35803;53.096;5.844;2022-08-11T19:09:15;3.67;;;1.20;;
49910;SDS011;35803;53.096;5.844;2022-08-11T19:12:00;3.42;;;1.60;;
49910;SDS011;35803;53.096;5.844;2022-08-11T19:14:47;1.60;;;1.50;;